createdAt,value
2018-08-19T00:00:56.167Z,96599.63
2018-08-19T00:03:25.598Z,96597.80
2018-08-19T00:05:55.079Z,96599.71
2018-08-19T00:08:24.476Z,96590.85
2018-08-19T00:11:05.734Z,96587.88
2018-08-19T00:13:37.096Z,96587.08
2018-08-19T00:16:07.689Z,96585.20
2018-08-19T00:18:37.735Z,96586.86
2018-08-19T00:21:12.758Z,96583.61
2018-08-19T00:23:47.570Z,96589.07
2018-08-19T00:26:17.056Z,96584.70
2018-08-19T00:28:47.405Z,96588.52
2018-08-19T00:31:20.505Z,96592.05
2018-08-19T00:33:50.354Z,96592.90
2018-08-19T00:36:27.667Z,96593.49
2018-08-19T00:38:57.599Z,96594.32
2018-08-19T00:41:27.405Z,96590.56
2018-08-19T00:43:56.855Z,96591.39
2018-08-19T00:46:31.648Z,96593.05
2018-08-19T00:49:01.944Z,96599.80
2018-08-19T00:51:31.396Z,96597.39
2018-08-19T00:54:00.785Z,96595.52
2018-08-19T00:56:30.245Z,96597.95
2018-08-19T00:59:00.154Z,96599.02
2018-08-19T01:01:37.216Z,96600.63
2018-08-19T01:04:10.301Z,96598.75
2018-08-19T01:06:45.300Z,96603.09
2018-08-19T01:09:14.709Z,96599.03
2018-08-19T01:11:46.582Z,96601.19
2018-08-19T01:14:16.439Z,96602.28
2018-08-19T01:16:47.005Z,96593.16
2018-08-19T01:19:18.183Z,96591.81
2018-08-19T01:21:50.742Z,96597.70
2018-08-19T01:24:20.155Z,96595.55
2018-08-19T01:26:50.151Z,96599.10
2018-08-19T01:29:32.554Z,96594.00
2018-08-19T01:32:08.400Z,96596.70
2018-08-19T01:34:37.860Z,96596.17
2018-08-19T01:37:07.587Z,96596.78
2018-08-19T01:39:38.821Z,96592.22
2018-08-19T01:42:08.894Z,96593.63
2018-08-19T01:44:38.436Z,96592.54
2018-08-19T01:47:07.886Z,96595.24
2018-08-19T01:49:38.490Z,96587.41
2018-08-19T01:52:08.704Z,96591.19
2018-08-19T01:54:38.151Z,96602.28
2018-08-19T01:57:08.314Z,96599.91
2018-08-19T01:59:38.610Z,96596.68
2018-08-19T02:02:08.451Z,96595.31
2018-08-19T02:04:59.117Z,96589.13
2018-08-19T02:07:28.534Z,96597.23
2018-08-19T02:10:02.349Z,96596.68
2018-08-19T02:12:39.664Z,96598.83
2018-08-19T02:15:10.030Z,96590.73
2018-08-19T02:18:15.918Z,96597.22
2018-08-19T02:20:45.361Z,96598.86
2018-08-19T02:23:14.758Z,96593.53
2018-08-19T02:25:47.447Z,96598.67
2018-08-19T02:28:23.595Z,96601.37
2018-08-19T02:30:57.965Z,96601.09
2018-08-19T02:33:28.037Z,96599.47
2018-08-19T02:36:11.789Z,96600.02
2018-08-19T02:38:41.258Z,96605.22
2018-08-19T02:41:10.705Z,96595.02
2018-08-19T02:43:46.493Z,96600.14
2018-08-19T02:46:15.900Z,96595.02
2018-08-19T02:48:47.522Z,96590.42
2018-08-19T02:51:18.072Z,96592.03
2018-08-19T02:53:49.602Z,96586.11
2018-08-19T02:56:19.825Z,96585.04
2018-08-19T02:58:49.659Z,96588.05
2018-08-19T03:01:19.407Z,96586.43
2018-08-19T03:03:49.304Z,96585.10
2018-08-19T03:06:18.702Z,96586.77
2018-08-19T03:08:53.167Z,96578.14
2018-08-19T03:11:23.618Z,96584.07
2018-08-19T03:13:53.003Z,96577.05
2018-08-19T03:16:22.885Z,96581.39
2018-08-19T03:18:53.311Z,96584.14
2018-08-19T03:21:23.522Z,96576.60
2018-08-19T03:23:54.076Z,96577.14
2018-08-19T03:26:23.524Z,96582.27
2018-08-19T03:28:52.925Z,96577.69
2018-08-19T03:31:22.390Z,96571.80
2018-08-19T03:33:52.287Z,96570.98
2018-08-19T03:36:22.619Z,96571.80
2018-08-19T03:38:52.138Z,96576.39
2018-08-19T03:41:21.622Z,96571.53
2018-08-19T03:43:55.561Z,96573.42
2018-08-19T03:46:24.932Z,96575.31
2018-08-19T03:48:54.659Z,96568.57
2018-08-19T03:51:24.096Z,96561.83
2018-08-19T03:53:53.531Z,96569.38
2018-08-19T03:56:26.911Z,96571.53
2018-08-19T03:58:58.600Z,96560.21
2018-08-19T04:01:38.495Z,96557.80
2018-08-19T04:04:09.902Z,96555.95
2018-08-19T04:06:41.292Z,96557.31
2018-08-19T04:09:11.459Z,96560.27
2018-08-19T04:11:40.874Z,96551.64
2018-08-19T04:14:26.175Z,96560.53
2018-08-19T04:16:57.420Z,96561.03
2018-08-19T04:19:27.854Z,96560.48
2018-08-19T04:22:01.642Z,96556.98
2018-08-19T04:24:32.398Z,96554.00
2018-08-19T04:27:09.933Z,96556.12
2018-08-19T04:29:39.591Z,96552.92
2018-08-19T04:32:19.160Z,96555.31
2018-08-19T04:34:48.600Z,96555.31
2018-08-19T04:37:18.000Z,96555.04
2018-08-19T04:39:52.485Z,96553.14
2018-08-19T04:42:22.007Z,96562.52
2018-08-19T04:44:54.550Z,96554.67
2018-08-19T04:47:40.395Z,96553.27
2018-08-19T04:50:13.856Z,96555.09
2018-08-19T04:52:43.287Z,96552.08
2018-08-19T04:55:13.080Z,96556.37
2018-08-19T04:57:42.503Z,96560.08
2018-08-19T05:00:11.901Z,96558.70
2018-08-19T05:02:42.276Z,96562.95
2018-08-19T05:05:11.947Z,96564.57
2018-08-19T05:07:43.525Z,96563.75
2018-08-19T05:10:13.018Z,96567.45
2018-08-19T05:15:21.654Z,96574.85
2018-08-19T05:17:51.107Z,96579.59
2018-08-19T05:20:20.559Z,96581.36
2018-08-19T05:22:50.483Z,96581.77
2018-08-19T05:25:19.937Z,96586.53
2018-08-19T05:27:58.211Z,96589.14
2018-08-19T05:30:27.672Z,96590.42
2018-08-19T05:33:02.325Z,96598.16
2018-08-19T05:35:32.935Z,96592.64
2018-08-19T05:38:03.545Z,96597.17
2018-08-19T05:40:33.731Z,96596.78
2018-08-19T05:43:03.129Z,96595.58
2018-08-19T05:45:32.674Z,96600.59
2018-08-19T05:48:09.544Z,96597.22
2018-08-19T05:50:39.371Z,96590.83
2018-08-19T05:53:09.347Z,96600.31
2018-08-19T05:55:39.456Z,96605.77
2018-08-19T05:58:08.923Z,96597.96
2018-08-19T06:00:41.436Z,96600.66
2018-08-19T06:03:11.598Z,96600.70
2018-08-19T06:05:43.006Z,96599.64
2018-08-19T06:08:13.454Z,96598.91
2018-08-19T06:10:43.378Z,96595.41
2018-08-19T06:13:14.125Z,96599.75
2018-08-19T06:15:43.701Z,96596.80
2018-08-19T06:18:13.185Z,96599.43
2018-08-19T06:20:42.876Z,96601.23
2018-08-19T06:23:13.102Z,96607.72
2018-08-19T06:25:43.653Z,96608.56
2018-08-19T06:28:14.942Z,96611.59
2018-08-19T06:30:47.896Z,96609.73
2018-08-19T06:33:17.746Z,96618.14
2018-08-19T06:35:47.996Z,96618.63
2018-08-19T06:38:18.538Z,96615.66
2018-08-19T06:40:56.239Z,96619.63
2018-08-19T06:43:25.647Z,96624.87
2018-08-19T06:46:03.683Z,96618.69
2018-08-19T06:48:33.207Z,96619.88
2018-08-19T06:51:04.369Z,96620.19
2018-08-19T06:53:40.995Z,96626.33
2018-08-19T06:56:11.238Z,96614.77
2018-08-19T06:58:41.570Z,96617.95
2018-08-19T07:01:12.666Z,96620.25
2018-08-19T07:03:48.013Z,96618.73
2018-08-19T07:06:19.674Z,96620.38
2018-08-19T07:08:49.086Z,96626.48
2018-08-19T07:11:19.966Z,96621.50
2018-08-19T07:14:21.308Z,96619.27
2018-08-19T07:16:50.765Z,96621.83
2018-08-19T07:19:20.819Z,96618.89
2018-08-19T07:21:55.942Z,96620.33
2018-08-19T07:24:26.045Z,96615.91
2018-08-19T07:28:11.874Z,96613.05
2018-08-19T07:30:42.342Z,96620.00
2018-08-19T07:33:14.918Z,96618.82
2018-08-19T07:35:45.729Z,96616.70
2018-08-19T07:38:17.229Z,96614.31
2018-08-19T07:40:49.938Z,96609.48
2018-08-19T07:43:19.939Z,96617.19
2018-08-19T07:45:49.402Z,96614.08
2018-08-19T07:48:19.544Z,96615.25
2018-08-19T07:50:49.232Z,96618.94
2018-08-19T07:53:20.095Z,96610.83
2018-08-19T07:55:49.555Z,96614.30
2018-08-19T07:58:35.357Z,96610.69
2018-08-19T08:01:08.064Z,96609.30
2018-08-19T08:03:39.454Z,96610.25
2018-08-19T08:06:08.962Z,96612.58
2018-08-19T08:08:42.166Z,96614.47
2018-08-19T08:11:14.331Z,96612.22
2018-08-19T08:13:48.390Z,96609.41
2018-08-19T08:16:18.469Z,96608.64
2018-08-19T08:18:49.845Z,96611.29
2018-08-19T08:21:24.142Z,96613.17
2018-08-19T08:23:53.478Z,96613.60
2018-08-19T08:26:23.990Z,96615.23
2018-08-19T08:29:00.149Z,96620.00
2018-08-19T08:31:29.527Z,96613.73
2018-08-19T08:34:00.699Z,96610.88
2018-08-19T08:36:30.999Z,96613.83
2018-08-19T08:39:02.617Z,96605.78
2018-08-19T08:41:32.027Z,96607.13
2018-08-19T08:44:01.846Z,96609.30
2018-08-19T08:46:32.171Z,96602.72
2018-08-19T08:49:04.179Z,96607.72
2018-08-19T08:51:33.564Z,96603.38
2018-08-19T08:54:03.487Z,96601.13
2018-08-19T08:56:32.987Z,96596.78
2018-08-19T08:59:02.491Z,96601.04
2018-08-19T09:01:32.335Z,96590.58
2018-08-19T09:04:02.110Z,96594.53
2018-08-19T09:06:31.484Z,96599.00
2018-08-19T09:09:01.600Z,96592.99
2018-08-19T09:11:31.407Z,96594.92
2018-08-19T09:14:01.649Z,96588.27
2018-08-19T09:16:31.946Z,96590.06
2018-08-19T09:19:02.684Z,96588.94
2018-08-19T09:21:33.062Z,96578.73
2018-08-19T09:24:03.964Z,96580.03
2018-08-19T09:26:34.718Z,96576.70
2018-08-19T09:29:07.249Z,96571.06
2018-08-19T09:31:44.384Z,96568.83
2018-08-19T09:34:22.104Z,96567.62
2018-08-19T09:36:53.179Z,96562.27
2018-08-19T09:39:23.218Z,96562.71
2018-08-19T09:41:58.747Z,96556.89
2018-08-19T09:44:28.826Z,96553.92
2018-08-19T09:46:58.258Z,96555.65
2018-08-19T09:49:27.634Z,96550.41
2018-08-19T09:52:01.275Z,96553.50
2018-08-19T09:54:35.371Z,96552.12
2018-08-19T09:57:06.628Z,96548.81
2018-08-19T09:59:51.755Z,96547.45
2018-08-19T10:02:22.291Z,96545.73
2018-08-19T10:04:53.684Z,96547.43
2018-08-19T10:07:23.903Z,96548.77
2018-08-19T10:09:53.329Z,96540.86
2018-08-19T10:12:23.561Z,96538.80
2018-08-19T10:14:55.028Z,96533.31
2018-08-19T10:17:25.750Z,96531.12
2018-08-19T10:19:55.575Z,96529.97
2018-08-19T10:22:30.070Z,96521.60
2018-08-19T10:25:00.463Z,96524.38
2018-08-19T10:27:29.854Z,96525.17
2018-08-19T10:29:59.349Z,96518.06
2018-08-19T10:32:28.843Z,96513.20
2018-08-19T10:34:58.832Z,96514.40
2018-08-19T10:37:32.480Z,96506.45
2018-08-19T10:40:01.930Z,96509.55
2018-08-19T10:42:33.046Z,96499.48
2018-08-19T10:45:11.542Z,96504.92
2018-08-19T10:47:43.387Z,96505.72
2018-08-19T10:50:17.290Z,96495.63
2018-08-19T10:52:46.678Z,96494.74
2018-08-19T10:55:16.515Z,96494.91
2018-08-19T10:57:48.983Z,96487.78
2018-08-19T11:00:22.080Z,96486.00
2018-08-19T11:02:51.603Z,96484.23
2018-08-19T11:05:21.509Z,96486.63
2018-08-19T11:08:00.177Z,96485.03
2018-08-19T11:10:32.987Z,96482.64
2018-08-19T11:13:03.004Z,96480.15
2018-08-19T11:15:59.292Z,96478.65
2018-08-19T11:18:51.111Z,96473.86
2018-08-19T11:21:27.645Z,96466.88
2018-08-19T11:23:59.196Z,96468.84
2018-08-19T11:26:30.387Z,96459.36
2018-08-19T11:29:01.228Z,96459.23
2018-08-19T11:31:37.172Z,96458.95
2018-08-19T11:34:08.682Z,96455.64
2018-08-19T11:36:44.905Z,96453.72
2018-08-19T11:39:16.679Z,96458.42
2018-08-19T11:41:46.479Z,96451.72
2018-08-19T11:44:17.394Z,96450.34
2018-08-19T11:46:48.208Z,96445.61
2018-08-19T11:49:19.541Z,96432.39
2018-08-19T11:51:51.931Z,96439.61
2018-08-19T11:54:23.755Z,96433.41
2018-08-19T11:57:01.155Z,96434.33
2018-08-19T11:59:35.691Z,96439.05
2018-08-19T12:02:10.103Z,96428.84
2018-08-19T12:04:47.795Z,96430.36
2018-08-19T12:07:17.596Z,96434.78
2018-08-19T12:09:55.358Z,96434.45
2018-08-19T12:12:40.504Z,96420.34
2018-08-19T12:15:10.008Z,96419.89
2018-08-19T12:17:40.974Z,96421.48
2018-08-19T12:20:11.290Z,96423.70
2018-08-19T12:22:44.367Z,96414.16
2018-08-19T12:27:51.467Z,96407.65
2018-08-19T12:30:22.055Z,96409.29
2018-08-19T12:32:51.572Z,96404.16
2018-08-19T12:35:21.966Z,96409.17
2018-08-19T12:37:51.374Z,96398.90
2018-08-19T12:40:21.896Z,96393.48
2018-08-19T12:42:55.353Z,96404.41
2018-08-19T12:45:27.209Z,96391.59
2018-08-19T12:47:58.603Z,96388.31
2018-08-19T12:50:28.035Z,96387.37
2018-08-19T12:52:58.081Z,96379.11
2018-08-19T12:55:31.619Z,96379.66
2018-08-19T12:58:06.491Z,96382.59
2018-08-19T13:00:36.534Z,96379.35
2018-08-19T13:03:08.007Z,96377.91
2018-08-19T13:05:51.996Z,96371.27
2018-08-19T13:08:23.441Z,96367.70
2018-08-19T13:10:53.294Z,96367.82
2018-08-19T13:13:22.648Z,96361.41
2018-08-19T13:15:53.708Z,96357.36
2018-08-19T13:18:45.121Z,96360.19
2018-08-19T13:21:19.493Z,96355.69
2018-08-19T13:23:49.779Z,96348.48
2018-08-19T13:26:19.190Z,96344.95
2018-08-19T13:28:54.734Z,96346.72
2018-08-19T13:31:29.884Z,96343.08
2018-08-19T13:34:00.646Z,96344.39
2018-08-19T13:36:30.514Z,96341.64
2018-08-19T13:38:59.886Z,96334.59
2018-08-19T13:41:30.255Z,96335.15
2018-08-19T13:43:59.642Z,96341.26
2018-08-19T13:46:31.658Z,96341.63
2018-08-19T13:49:01.040Z,96335.60
2018-08-19T13:51:32.253Z,96326.92
2018-08-19T13:54:02.162Z,96319.05
2018-08-19T13:56:31.522Z,96308.37
2018-08-19T13:59:01.102Z,96309.14
2018-08-19T14:01:30.962Z,96319.75
2018-08-19T14:04:01.266Z,96311.48
2018-08-19T14:06:35.571Z,96305.80
2018-08-19T14:09:05.779Z,96307.86
2018-08-19T14:11:35.180Z,96307.16
2018-08-19T14:14:08.043Z,96305.25
2018-08-19T14:16:38.212Z,96307.92
2018-08-19T14:19:09.035Z,96303.66
2018-08-19T14:21:39.419Z,96293.02
2018-08-19T14:24:10.018Z,96290.89
2018-08-19T14:26:41.772Z,96298.73
2018-08-19T14:29:12.407Z,96293.67
2018-08-19T14:31:44.034Z,96288.03
2018-08-19T14:34:14.383Z,96292.86
2018-08-19T14:36:44.181Z,96281.33
2018-08-19T14:39:15.126Z,96269.98
2018-08-19T14:41:46.774Z,96270.84
2018-08-19T14:44:16.159Z,96269.11
2018-08-19T14:46:48.066Z,96273.91
2018-08-19T14:49:18.582Z,96272.10
2018-08-19T14:52:00.798Z,96268.80
2018-08-19T14:54:31.175Z,96266.84
2018-08-19T14:57:00.538Z,96263.04
2018-08-19T14:59:30.410Z,96264.48
2018-08-19T15:02:00.498Z,96265.91
2018-08-19T15:04:32.526Z,96259.27
2018-08-19T15:07:04.570Z,96260.19
2018-08-19T15:09:35.768Z,96257.62
2018-08-19T15:12:12.301Z,96260.17
2018-08-19T15:14:48.567Z,96252.92
2018-08-19T15:17:18.736Z,96259.27
2018-08-19T15:19:51.708Z,96255.93
2018-08-19T15:22:24.511Z,96258.11
2018-08-19T15:24:54.634Z,96252.57
2018-08-19T15:27:25.275Z,96255.95
2018-08-19T15:29:55.738Z,96248.78
2018-08-19T15:32:26.387Z,96245.56
2018-08-19T15:34:55.841Z,96239.40
2018-08-19T15:37:25.270Z,96242.94
2018-08-19T15:39:57.907Z,96243.53
2018-08-19T15:42:34.457Z,96237.22
2018-08-19T15:45:03.810Z,96228.48
2018-08-19T15:47:33.893Z,96229.86
2018-08-19T15:52:53.153Z,96230.11
2018-08-19T15:55:25.524Z,96227.34
2018-08-19T15:57:57.255Z,96230.11
2018-08-19T16:00:27.371Z,96225.77
2018-08-19T16:03:24.396Z,96232.66
2018-08-19T16:06:02.107Z,96224.38
2018-08-19T16:08:31.552Z,96220.47
2018-08-19T16:11:01.512Z,96222.06
2018-08-19T16:13:35.518Z,96225.83
2018-08-19T16:16:05.442Z,96224.31
2018-08-19T16:19:11.859Z,96222.65
2018-08-19T16:21:42.187Z,96220.56
2018-08-19T16:24:12.546Z,96212.33
2018-08-19T16:26:42.952Z,96213.48
2018-08-19T16:29:14.195Z,96205.58
2018-08-19T16:31:43.727Z,96209.61
2018-08-19T16:34:17.015Z,96211.26
2018-08-19T16:36:46.634Z,96214.91
2018-08-19T16:39:18.053Z,96209.81
2018-08-19T16:41:47.626Z,96208.73
2018-08-19T16:44:17.149Z,96208.61
2018-08-19T16:46:47.102Z,96211.27
2018-08-19T16:49:16.566Z,96206.26
2018-08-19T16:51:46.061Z,96205.91
2018-08-19T16:54:16.227Z,96203.97
2018-08-19T16:56:45.651Z,96206.63
2018-08-19T16:59:16.479Z,96209.02
2018-08-19T17:01:49.016Z,96206.33
2018-08-19T17:04:21.085Z,96210.82
2018-08-19T17:06:52.023Z,96210.66
2018-08-19T17:09:22.629Z,96211.06
2018-08-19T17:11:52.306Z,96212.30
2018-08-19T17:14:24.853Z,96210.67
2018-08-19T17:17:02.347Z,96211.79
2018-08-19T17:19:35.702Z,96209.23
2018-08-19T17:22:09.526Z,96211.86
2018-08-19T17:24:40.347Z,96212.76
2018-08-19T17:27:12.207Z,96211.16
2018-08-19T17:29:43.044Z,96215.30
2018-08-19T17:32:17.292Z,96219.28
2018-08-19T17:34:47.521Z,96219.55
2018-08-19T17:37:19.785Z,96219.08
2018-08-19T17:39:51.703Z,96222.77
2018-08-19T17:42:22.669Z,96219.59
2018-08-19T17:44:52.795Z,96224.72
2018-08-19T17:47:26.145Z,96219.67
2018-08-19T17:49:55.679Z,96227.81
2018-08-19T17:52:26.387Z,96223.88
2018-08-19T17:54:56.891Z,96223.20
2018-08-19T17:57:28.542Z,96224.27
2018-08-19T18:00:00.745Z,96228.36
2018-08-19T18:02:31.892Z,96227.78
2018-08-19T18:05:02.784Z,96234.89
2018-08-19T18:07:33.164Z,96240.30
2018-08-19T18:10:09.866Z,96235.59
2018-08-19T18:12:39.818Z,96241.94
2018-08-19T18:15:12.406Z,96247.68
2018-08-19T18:17:48.396Z,96252.72
2018-08-19T18:20:50.438Z,96251.44
2018-08-19T18:23:32.557Z,96254.79
2018-08-19T18:26:02.101Z,96251.15
2018-08-19T18:28:58.804Z,96252.32
2018-08-19T18:31:31.541Z,96254.16
2018-08-19T18:34:01.649Z,96255.15
2018-08-19T18:36:35.649Z,96247.97
2018-08-19T18:39:09.166Z,96260.37
2018-08-19T18:41:40.613Z,96256.38
2018-08-19T18:44:12.910Z,96257.15
2018-08-19T18:46:43.369Z,96258.37
2018-08-19T18:49:14.481Z,96256.55
2018-08-19T18:51:52.429Z,96254.67
2018-08-19T18:54:32.720Z,96254.06
2018-08-19T18:57:04.275Z,96265.39
2018-08-19T18:59:36.555Z,96258.89
2018-08-19T19:02:05.989Z,96259.41
2018-08-19T19:04:35.434Z,96255.96
2018-08-19T19:07:06.154Z,96255.94
2018-08-19T19:09:48.883Z,96252.72
2018-08-19T19:12:21.600Z,96255.41
2018-08-19T19:14:52.066Z,96248.09
2018-08-19T19:17:24.390Z,96251.41
2018-08-19T19:19:53.962Z,96249.88
2018-08-19T19:22:25.103Z,96254.27
2018-08-19T19:24:56.710Z,96256.56
2018-08-19T19:27:26.470Z,96255.73
2018-08-19T19:30:00.791Z,96248.63
2018-08-19T19:32:30.250Z,96251.16
2018-08-19T19:35:21.167Z,96248.95
2018-08-19T19:37:50.560Z,96252.84
2018-08-19T19:40:24.627Z,96251.67
2018-08-19T19:42:54.773Z,96254.56
2018-08-19T19:45:25.417Z,96253.45
2018-08-19T19:47:54.890Z,96258.36
2018-08-19T19:50:24.441Z,96260.31
2018-08-19T19:52:59.429Z,96255.59
2018-08-19T19:55:29.958Z,96256.05
2018-08-19T19:58:02.690Z,96261.02
2018-08-19T20:01:39.288Z,96261.97
2018-08-19T20:04:09.138Z,96257.59
2018-08-19T20:06:49.669Z,96258.78
2018-08-19T20:09:22.953Z,96259.51
2018-08-19T20:14:29.892Z,96268.73
2018-08-19T20:17:03.391Z,96270.47
2018-08-19T20:19:33.503Z,96263.30
2018-08-19T20:22:03.833Z,96273.97
2018-08-19T20:24:34.808Z,96268.71
2018-08-19T20:27:05.475Z,96263.48
2018-08-19T20:29:36.419Z,96266.94
2018-08-19T20:32:10.222Z,96267.98
2018-08-19T20:34:45.420Z,96270.69
2018-08-19T20:37:14.991Z,96269.09
2018-08-19T20:39:45.968Z,96274.90
2018-08-19T20:42:20.762Z,96266.18
2018-08-19T20:44:50.304Z,96270.95
2018-08-19T20:47:23.639Z,96271.11
2018-08-19T20:49:55.306Z,96280.19
2018-08-19T20:52:34.262Z,96279.30
2018-08-19T20:55:05.312Z,96283.20
2018-08-19T20:57:38.801Z,96276.05
2018-08-19T21:00:10.293Z,96276.75
2018-08-19T21:02:40.416Z,96281.51
2018-08-19T21:05:10.980Z,96274.56
2018-08-19T21:07:47.915Z,96281.97
2018-08-19T21:10:22.841Z,96283.23
2018-08-19T21:12:54.453Z,96279.53
2018-08-19T21:15:28.339Z,96284.22
2018-08-19T21:17:57.742Z,96280.30
2018-08-19T21:20:27.967Z,96290.16
2018-08-19T21:22:58.308Z,96292.07
2018-08-19T21:25:28.756Z,96293.52
2018-08-19T21:28:00.227Z,96287.91
2018-08-19T21:30:33.819Z,96286.69
2018-08-19T21:33:05.722Z,96293.34
2018-08-19T21:36:38.466Z,96289.58
2018-08-19T21:39:10.353Z,96290.77
2018-08-19T21:41:49.504Z,96292.98
2018-08-19T21:44:21.080Z,96295.75
2018-08-19T21:46:51.826Z,96301.07
2018-08-19T21:49:22.287Z,96296.65
2018-08-19T21:51:53.308Z,96296.26
2018-08-19T21:54:25.541Z,96287.13
2018-08-19T21:56:56.847Z,96292.30
2018-08-19T21:59:30.391Z,96287.43
2018-08-19T22:02:05.140Z,96290.45
2018-08-19T22:04:34.561Z,96289.14
2018-08-19T22:07:05.319Z,96291.79
2018-08-19T22:09:37.474Z,96292.03
2018-08-19T22:12:08.806Z,96289.75
2018-08-19T22:14:40.346Z,96290.36
2018-08-19T22:17:10.837Z,96292.64
2018-08-19T22:19:41.327Z,96291.94
2018-08-19T22:22:12.278Z,96297.23
2018-08-19T22:24:42.606Z,96297.91
2018-08-19T22:27:19.635Z,96299.48
2018-08-19T22:29:51.471Z,96287.63
2018-08-19T22:32:22.139Z,96287.73
2018-08-19T22:37:26.824Z,96289.46
2018-08-19T22:39:58.556Z,96288.16
2018-08-19T22:42:28.634Z,96291.71
2018-08-19T22:44:59.587Z,96289.13
2018-08-19T22:47:33.136Z,96289.42
2018-08-19T22:50:03.555Z,96287.61
2018-08-19T22:52:33.686Z,96284.95
2018-08-19T22:55:05.242Z,96283.97
2018-08-19T22:58:10.647Z,96282.93
2018-08-19T23:00:40.094Z,96284.11
2018-08-19T23:03:13.831Z,96284.70
2018-08-19T23:05:46.319Z,96282.84
2018-08-19T23:08:19.967Z,96286.22
2018-08-19T23:10:49.406Z,96285.70
2018-08-19T23:13:35.191Z,96286.81
2018-08-19T23:16:11.145Z,96286.30
2018-08-19T23:18:43.350Z,96282.86
2018-08-19T23:21:13.845Z,96286.42
2018-08-19T23:23:43.745Z,96282.31
2018-08-19T23:26:13.245Z,96282.70
2018-08-19T23:28:43.248Z,96290.38
2018-08-19T23:31:12.708Z,96281.80
2018-08-19T23:33:42.547Z,96282.89
2018-08-19T23:36:12.922Z,96282.75
2018-08-19T23:38:42.323Z,96281.98
2018-08-19T23:41:11.714Z,96292.55
2018-08-19T23:43:42.298Z,96287.39
2018-08-19T23:46:13.377Z,96288.20
2018-08-19T23:48:43.536Z,96285.06
2018-08-19T23:51:15.159Z,96279.58
2018-08-19T23:53:44.569Z,96284.19
2018-08-19T23:56:14.331Z,96277.75
2018-08-19T23:58:46.672Z,96277.53
